createdAt,value
2022-09-27T00:01:57.059Z,98107.84
2022-09-27T00:06:53.789Z,98100.22
2022-09-27T00:11:50.791Z,98099.06
2022-09-27T00:16:47.202Z,98100.03
2022-09-27T00:21:44.748Z,98102.34
2022-09-27T00:26:41.648Z,98103.19
2022-09-27T00:31:38.371Z,98095.34
2022-09-27T00:36:34.813Z,98087.53
2022-09-27T00:41:35.833Z,98101.38
2022-09-27T00:46:48.290Z,98105.75
2022-09-27T00:51:47.895Z,98099.94
2022-09-27T00:56:44.806Z,98097.75
2022-09-27T01:01:41.365Z,98091.63
2022-09-27T01:06:38.387Z,98092.78
2022-09-27T01:11:40.782Z,98086.84
2022-09-27T01:17:02.163Z,98092.28
2022-09-27T01:22:07.468Z,98101.44
2022-09-27T01:27:31.974Z,98093.66
2022-09-27T01:32:45.201Z,98095.66
2022-09-27T01:38:12.570Z,98097.84
2022-09-27T01:43:14.899Z,98096.84
2022-09-27T01:48:19.203Z,98102.16
2022-09-27T01:53:28.915Z,98109.09
2022-09-27T01:58:41.256Z,98109.94
2022-09-27T02:03:43.111Z,98110.28
2022-09-27T02:08:46.517Z,98109.31
2022-09-27T02:13:51.062Z,98119.44
2022-09-27T02:19:02.368Z,98115.78
2022-09-27T02:24:04.688Z,98113.66
2022-09-27T02:29:07.620Z,98121.78
2022-09-27T02:34:16.932Z,98118.44
2022-09-27T02:39:13.212Z,98130.25
2022-09-27T02:44:13.659Z,98133.88
2022-09-27T02:49:31.699Z,98132.56
2022-09-27T02:54:41.515Z,98140.38
2022-09-27T02:59:59.760Z,98137.88
2022-09-27T03:05:02.983Z,98142.53
2022-09-27T03:09:59.292Z,98137.38
2022-09-27T03:14:58.075Z,98140.22
2022-09-27T03:19:54.377Z,98145.03
2022-09-27T03:24:50.672Z,98141.72
2022-09-27T03:29:46.963Z,98147.03
2022-09-27T03:34:43.296Z,98155.81
2022-09-27T03:39:40.593Z,98157.66
2022-09-27T03:44:37.043Z,98161.97
2022-09-27T03:49:33.831Z,98159.31
2022-09-27T03:54:30.150Z,98160.00
2022-09-27T03:59:26.589Z,98170.59
2022-09-27T04:04:23.084Z,98168.25
2022-09-27T04:09:19.464Z,98164.28
2022-09-27T04:14:15.835Z,98165.78
2022-09-27T04:19:12.445Z,98168.25
2022-09-27T04:24:08.929Z,98168.59
2022-09-27T04:29:06.096Z,98164.25
2022-09-27T04:34:02.536Z,98169.91
2022-09-27T04:39:02.683Z,98172.91
2022-09-27T04:44:02.048Z,98176.53
2022-09-27T04:48:59.756Z,98187.97
2022-09-27T04:53:57.751Z,98186.78
2022-09-27T04:58:54.140Z,98199.25
2022-09-27T05:03:50.419Z,98196.09
2022-09-27T05:08:46.733Z,98206.84
2022-09-27T05:13:43.436Z,98210.00
2022-09-27T05:18:39.936Z,98212.78
2022-09-27T05:23:36.577Z,98222.88
2022-09-27T05:28:35.056Z,98230.72
2022-09-27T05:33:31.333Z,98235.84
2022-09-27T05:38:28.109Z,98238.34
2022-09-27T05:43:24.917Z,98248.09
2022-09-27T05:48:22.263Z,98248.09
2022-09-27T05:53:18.667Z,98254.44
2022-09-27T05:58:16.162Z,98255.91
2022-09-27T06:03:14.019Z,98262.06
2022-09-27T06:08:12.194Z,98251.78
2022-09-27T06:13:14.516Z,98253.59
2022-09-27T06:18:13.446Z,98260.81
2022-09-27T06:23:15.267Z,98263.97
2022-09-27T06:28:11.810Z,98259.31
2022-09-27T06:33:11.714Z,98267.41
2022-09-27T06:38:10.354Z,98285.13
2022-09-27T06:43:09.252Z,98288.94
2022-09-27T06:48:07.376Z,98276.66
2022-09-27T06:53:05.174Z,98283.66
2022-09-27T06:58:40.294Z,98288.09
2022-09-27T07:03:41.074Z,98285.50
2022-09-27T07:08:38.630Z,98290.47
2022-09-27T07:13:40.142Z,98300.41
2022-09-27T07:18:36.561Z,98296.88
2022-09-27T07:23:32.920Z,98305.34
2022-09-27T07:28:29.305Z,98312.31
2022-09-27T07:33:26.210Z,98317.16
2022-09-27T07:38:22.979Z,98321.16
2022-09-27T07:43:19.575Z,98322.03
2022-09-27T07:48:16.649Z,98331.69
2022-09-27T07:53:13.828Z,98334.97
2022-09-27T07:58:11.811Z,98332.47
2022-09-27T08:03:11.562Z,98343.44
2022-09-27T08:08:08.093Z,98335.88
2022-09-27T08:13:05.323Z,98337.53
2022-09-27T08:18:01.885Z,98328.56
2022-09-27T08:22:58.181Z,98341.84
2022-09-27T08:27:56.559Z,98335.84
2022-09-27T08:32:57.054Z,98343.47
2022-09-27T08:37:55.216Z,98349.13
2022-09-27T08:43:04.548Z,98348.84
2022-09-27T08:48:04.731Z,98344.50
2022-09-27T08:53:27.887Z,98353.25
2022-09-27T08:58:27.186Z,98353.91
2022-09-27T09:03:27.235Z,98353.41
2022-09-27T09:08:42.385Z,98345.03
2022-09-27T09:13:58.882Z,98353.53
2022-09-27T09:19:04.310Z,98359.63
2022-09-27T09:24:26.950Z,98363.34
2022-09-27T09:29:59.743Z,98366.88
2022-09-27T09:35:03.169Z,98370.69
2022-09-27T09:40:17.515Z,98368.66
2022-09-27T09:45:24.318Z,98374.81
2022-09-27T09:50:26.866Z,98361.63
2022-09-27T09:55:28.819Z,98368.94
2022-09-27T10:00:25.183Z,98354.69
2022-09-27T10:05:24.064Z,98354.94
2022-09-27T10:10:21.188Z,98352.53
2022-09-27T10:15:28.206Z,98346.97
2022-09-27T10:20:30.085Z,98350.28
2022-09-27T10:25:46.174Z,98370.41
2022-09-27T10:30:42.499Z,98369.25
2022-09-27T10:35:43.488Z,98386.19
2022-09-27T10:40:39.968Z,98371.81
2022-09-27T10:45:37.115Z,98367.09
2022-09-27T10:50:53.750Z,98367.03
2022-09-27T10:55:52.531Z,98366.13
2022-09-27T11:01:03.299Z,98365.66
2022-09-27T11:05:59.732Z,98363.09
2022-09-27T11:11:14.191Z,98355.13
2022-09-27T11:16:31.988Z,98360.09
2022-09-27T11:22:09.931Z,98360.09
2022-09-27T11:27:21.647Z,98371.72
2022-09-27T11:32:39.731Z,98360.69
2022-09-27T11:37:50.350Z,98351.88
2022-09-27T11:42:53.501Z,98358.16
2022-09-27T11:47:57.176Z,98371.81
2022-09-27T11:53:04.057Z,98366.91
2022-09-27T11:58:15.613Z,98357.63
2022-09-27T12:03:28.897Z,98361.56
2022-09-27T12:08:53.275Z,98368.03
2022-09-27T12:13:58.618Z,98363.22
2022-09-27T12:18:55.862Z,98359.59
2022-09-27T12:23:57.793Z,98366.69
2022-09-27T12:29:05.077Z,98354.97
2022-09-27T12:34:19.873Z,98361.06
2022-09-27T12:39:28.317Z,98359.41
2022-09-27T12:44:24.660Z,98350.59
2022-09-27T12:50:00.336Z,98368.03
2022-09-27T12:55:10.981Z,98373.06
2022-09-27T13:00:22.546Z,98369.41
2022-09-27T13:05:37.036Z,98363.38
2022-09-27T13:10:37.716Z,98358.81
2022-09-27T13:15:36.653Z,98363.03
2022-09-27T13:20:35.718Z,98345.78
2022-09-27T13:25:56.248Z,98341.53
2022-09-27T13:30:52.826Z,98334.22
2022-09-27T13:36:20.084Z,98332.91
2022-09-27T13:41:19.159Z,98348.81
2022-09-27T13:46:20.881Z,98351.50
2022-09-27T13:51:30.254Z,98364.94
2022-09-27T13:56:47.050Z,98356.94
2022-09-27T14:01:49.207Z,98360.31
2022-09-27T14:06:49.612Z,98361.66
2022-09-27T14:11:53.401Z,98364.66
2022-09-27T14:16:49.983Z,98366.38
2022-09-27T14:21:47.148Z,98365.09
2022-09-27T14:26:43.427Z,98371.19
2022-09-27T14:31:39.837Z,98374.88
2022-09-27T14:36:56.735Z,98369.56
2022-09-27T14:41:53.402Z,98373.97
2022-09-27T14:47:08.161Z,98380.75
2022-09-27T14:52:17.765Z,98390.69
2022-09-27T14:57:17.025Z,98384.16
2022-09-27T15:02:23.519Z,98398.22
2022-09-27T15:07:22.129Z,98410.91
2022-09-27T15:12:25.606Z,98408.41
2022-09-27T15:17:22.571Z,98403.13
2022-09-27T15:22:44.531Z,98395.09
2022-09-27T15:27:40.853Z,98406.91
2022-09-27T15:32:37.248Z,98406.44
2022-09-27T15:37:38.582Z,98413.09
2022-09-27T15:42:57.131Z,98420.56
2022-09-27T15:47:53.559Z,98427.53
2022-09-27T15:52:57.983Z,98429.03
2022-09-27T15:57:59.211Z,98427.75
2022-09-27T16:02:56.067Z,98429.34
2022-09-27T16:07:52.626Z,98429.56
2022-09-27T16:12:50.804Z,98436.03
2022-09-27T16:17:47.124Z,98443.69
2022-09-27T16:22:43.396Z,98442.00
2022-09-27T16:27:40.052Z,98429.56
2022-09-27T16:32:41.190Z,98431.88
2022-09-27T16:37:37.852Z,98425.09
2022-09-27T16:42:34.957Z,98431.69
2022-09-27T16:47:31.896Z,98434.00
2022-09-27T16:52:34.061Z,98431.16
2022-09-27T16:57:30.382Z,98427.63
2022-09-27T17:02:27.284Z,98422.94
2022-09-27T17:07:24.100Z,98422.59
2022-09-27T17:12:20.408Z,98425.56
2022-09-27T17:17:16.835Z,98419.59
2022-09-27T17:22:13.156Z,98420.91
2022-09-27T17:27:09.497Z,98423.69
2022-09-27T17:32:08.703Z,98422.84
2022-09-27T17:37:05.720Z,98428.84
2022-09-27T17:42:02.702Z,98425.97
2022-09-27T17:47:17.976Z,98434.59
2022-09-27T17:52:14.264Z,98428.25
2022-09-27T17:57:10.562Z,98428.56
2022-09-27T18:02:07.892Z,98431.41
2022-09-27T18:07:04.287Z,98421.56
2022-09-27T18:12:01.112Z,98429.50
2022-09-27T18:16:58.049Z,98431.13
2022-09-27T18:21:54.443Z,98427.47
2022-09-27T18:26:50.711Z,98424.41
2022-09-27T18:31:48.971Z,98423.06
2022-09-27T18:36:46.017Z,98427.56
2022-09-27T18:41:42.649Z,98427.97
2022-09-27T18:46:39.254Z,98428.03
2022-09-27T18:51:37.631Z,98427.16
2022-09-27T18:56:39.079Z,98427.16
2022-09-27T19:01:41.518Z,98420.16
2022-09-27T19:06:39.065Z,98422.72
2022-09-27T19:11:35.402Z,98428.81
2022-09-27T19:16:31.917Z,98427.31
2022-09-27T19:21:29.586Z,98424.44
2022-09-27T19:26:27.021Z,98422.34
2022-09-27T19:31:26.221Z,98427.88
2022-09-27T19:36:22.571Z,98428.34
2022-09-27T19:41:19.834Z,98439.38
2022-09-27T19:46:17.536Z,98435.38
2022-09-27T19:51:22.518Z,98433.03
2022-09-27T19:56:19.869Z,98442.25
2022-09-27T20:01:21.685Z,98435.00
2022-09-27T20:06:19.903Z,98436.00
2022-09-27T20:11:18.666Z,98426.69
2022-09-27T20:16:18.213Z,98425.00
2022-09-27T20:21:15.326Z,98425.63
2022-09-27T20:26:14.943Z,98425.31
2022-09-27T20:31:14.105Z,98428.94
2022-09-27T20:36:19.355Z,98417.22
2022-09-27T20:41:18.093Z,98406.31
2022-09-27T20:46:17.254Z,98406.66
2022-09-27T20:51:14.637Z,98404.56
2022-09-27T20:56:31.403Z,98410.38
2022-09-27T21:01:28.962Z,98404.41
2022-09-27T21:06:27.002Z,98412.94
2022-09-27T21:11:23.551Z,98403.53
2022-09-27T21:16:22.550Z,98402.03
2022-09-27T21:21:21.693Z,98405.34
2022-09-27T21:26:19.822Z,98397.69
2022-09-27T21:31:23.157Z,98396.50
2022-09-27T21:36:21.078Z,98388.09
2022-09-27T21:41:18.544Z,98390.91
2022-09-27T21:46:19.135Z,98401.19
2022-09-27T21:51:21.294Z,98397.41
2022-09-27T21:56:18.299Z,98388.78
2022-09-27T22:01:18.338Z,98393.94
2022-09-27T22:06:17.121Z,98383.59
2022-09-27T22:11:21.821Z,98394.09
2022-09-27T22:16:19.764Z,98386.88
2022-09-27T22:21:37.372Z,98385.19
2022-09-27T22:26:36.141Z,98386.25
2022-09-27T22:31:33.083Z,98388.72
2022-09-27T22:36:31.526Z,98384.75
2022-09-27T22:41:29.340Z,98375.53
2022-09-27T22:46:26.467Z,98373.56
2022-09-27T22:51:22.768Z,98371.59
2022-09-27T22:56:20.135Z,98362.00
2022-09-27T23:01:22.336Z,98358.06
2022-09-27T23:06:20.452Z,98359.06
2022-09-27T23:11:22.210Z,98353.75
2022-09-27T23:16:21.063Z,98343.16
2022-09-27T23:21:17.519Z,98338.19
2022-09-27T23:26:16.493Z,98336.38
2022-09-27T23:31:16.774Z,98326.91
2022-09-27T23:36:15.743Z,98329.56
2022-09-27T23:41:13.538Z,98314.28
2022-09-27T23:46:10.624Z,98324.03
2022-09-27T23:51:10.120Z,98311.97
2022-09-27T23:56:09.071Z,98305.19
